createdAt,value
2018-03-02T00:00:40.365Z,57.85
2018-03-02T00:01:20.977Z,57.95
2018-03-02T00:02:01.601Z,57.76
2018-03-02T00:02:42.086Z,58.23
2018-03-02T00:03:22.620Z,57.76
2018-03-02T00:04:03.391Z,57.76
2018-03-02T00:04:44.136Z,57.76
2018-03-02T00:05:24.969Z,57.66
2018-03-02T00:06:05.497Z,57.85
2018-03-02T00:06:46.094Z,58.32
2018-03-02T00:07:26.594Z,58.42
2018-03-02T00:08:07.210Z,58.51
2018-03-02T00:08:47.766Z,58.42
2018-03-02T00:09:28.326Z,58.51
2018-03-02T00:10:08.865Z,58.23
2018-03-02T00:10:49.489Z,58.51
2018-03-02T00:11:30.025Z,58.42
2018-03-02T00:12:10.596Z,58.13
2018-03-02T00:12:51.193Z,58.32
2018-03-02T00:13:31.709Z,58.42
2018-03-02T00:14:12.326Z,58.51
2018-03-02T00:14:52.875Z,58.13
2018-03-02T00:15:33.443Z,58.23
2018-03-02T00:16:13.975Z,58.42
2018-03-02T00:16:54.525Z,58.61
2018-03-02T00:17:35.074Z,58.7
2018-03-02T00:18:15.654Z,58.42
2018-03-02T00:18:56.200Z,58.8
2018-03-02T00:19:37.105Z,58.51
2018-03-02T00:20:17.646Z,58.51
2018-03-02T00:20:58.254Z,58.51
2018-03-02T00:21:39.169Z,58.51
2018-03-02T00:22:19.622Z,58.51
2018-03-02T00:23:00.222Z,58.51
2018-03-02T00:23:40.758Z,58.61
2018-03-02T00:24:21.426Z,58.61
2018-03-02T00:25:02.036Z,58.61
2018-03-02T00:25:43.200Z,58.61
2018-03-02T00:26:24.068Z,58.7
2018-03-02T00:27:04.549Z,58.8
2018-03-02T00:27:45.110Z,58.7
2018-03-02T00:28:25.844Z,58.8
2018-03-02T00:29:06.555Z,58.61
2018-03-02T00:29:47.096Z,58.61
2018-03-02T00:30:27.701Z,58.61
2018-03-02T00:31:08.264Z,58.61
2018-03-02T00:31:48.855Z,58.61
2018-03-02T00:32:29.493Z,58.61
2018-03-02T00:33:10.073Z,58.8
2018-03-02T00:33:50.522Z,58.89
2018-03-02T00:34:31.292Z,58.8
2018-03-02T00:35:11.626Z,58.7
2018-03-02T00:35:52.192Z,58.8
2018-03-02T00:36:32.743Z,58.61
2018-03-02T00:37:13.985Z,59.08
2018-03-02T00:37:54.411Z,59.08
2018-03-02T00:38:34.960Z,59.08
2018-03-02T00:39:15.507Z,59.45
2018-03-02T00:39:56.074Z,59.27
2018-03-02T00:40:36.598Z,58.89
2018-03-02T00:41:17.192Z,59.36
2018-03-02T00:41:57.839Z,58.98
2018-03-02T00:42:38.411Z,59.08
2018-03-02T00:43:19.023Z,58.89
2018-03-02T00:43:59.654Z,58.89
2018-03-02T00:44:40.234Z,58.98
2018-03-02T00:45:20.848Z,58.7
2018-03-02T00:46:01.382Z,58.8
2018-03-02T00:46:41.942Z,58.8
2018-03-02T00:47:22.495Z,58.89
2018-03-02T00:48:03.046Z,58.8
2018-03-02T00:48:43.607Z,58.7
2018-03-02T00:49:24.357Z,58.98
2018-03-02T00:50:04.953Z,58.98
2018-03-02T00:50:45.684Z,59.17
2018-03-02T00:51:26.246Z,58.51
2018-03-02T00:52:06.806Z,58.51
2018-03-02T00:52:47.472Z,58.8
2018-03-02T00:53:28.088Z,58.98
2018-03-02T00:54:08.650Z,58.8
2018-03-02T00:54:49.182Z,59.08
2018-03-02T00:55:29.784Z,59.45
2018-03-02T00:56:10.276Z,59.55
2018-03-02T00:56:50.873Z,59.45
2018-03-02T00:57:31.450Z,59.83
2018-03-02T00:58:12.004Z,59.55
2018-03-02T00:58:52.565Z,59.45
2018-03-02T00:59:33.113Z,59.27
2018-03-02T01:00:13.680Z,59.27
2018-03-02T01:00:54.236Z,59.74
2018-03-02T01:01:34.784Z,59.64
2018-03-02T01:02:15.324Z,59.64
2018-03-02T01:02:56.019Z,59.74
2018-03-02T01:03:36.572Z,59.36
2018-03-02T01:04:17.117Z,59.83
2018-03-02T01:04:57.668Z,59.27
2018-03-02T01:05:38.226Z,59.55
2018-03-02T01:06:18.774Z,59.36
2018-03-02T01:06:59.339Z,59.36
2018-03-02T01:07:39.871Z,59.17
2018-03-02T01:08:20.426Z,59.55
2018-03-02T01:09:01.007Z,59.83
2018-03-02T01:09:41.579Z,59.64
2018-03-02T01:10:22.160Z,59.64
2018-03-02T01:11:02.748Z,59.92
2018-03-02T01:11:43.356Z,59.74
2018-03-02T01:12:23.858Z,59.74
2018-03-02T01:13:04.392Z,60.21
2018-03-02T01:13:44.941Z,60.21
2018-03-02T01:14:25.496Z,60.02
2018-03-02T01:15:06.034Z,60.21
2018-03-02T01:15:46.615Z,60.3
2018-03-02T01:16:27.186Z,60.49
2018-03-02T01:17:07.804Z,60.11
2018-03-02T01:17:48.362Z,59.64
2018-03-02T01:18:28.908Z,59.83
2018-03-02T01:19:09.467Z,60.11
2018-03-02T01:19:50.090Z,59.92
2018-03-02T01:20:30.662Z,60.11
2018-03-02T01:21:11.217Z,60.21
2018-03-02T01:21:51.802Z,60.11
2018-03-02T01:22:32.364Z,60.11
2018-03-02T01:23:12.930Z,60.11
2018-03-02T01:23:53.486Z,60.11
2018-03-02T01:24:34.057Z,60.21
2018-03-02T01:25:14.720Z,60.58
2018-03-02T01:25:55.171Z,60.3
2018-03-02T01:26:35.706Z,60.3
2018-03-02T01:27:16.251Z,60.3
2018-03-02T01:27:56.802Z,60.21
2018-03-02T01:28:37.342Z,60.11
2018-03-02T01:29:17.921Z,60.58
2018-03-02T01:29:58.461Z,60.39
2018-03-02T01:30:39.019Z,60.39
2018-03-02T01:31:19.545Z,60.3
2018-03-02T01:32:00.084Z,60.77
2018-03-02T01:32:40.641Z,60.77
2018-03-02T01:33:21.200Z,60.86
2018-03-02T01:34:01.788Z,60.96
2018-03-02T01:34:42.331Z,60.96
2018-03-02T01:35:22.900Z,60.49
2018-03-02T01:36:03.436Z,60.21
2018-03-02T01:36:43.993Z,60.58
2018-03-02T01:37:24.541Z,60.49
2018-03-02T01:38:05.070Z,60.3
2018-03-02T01:38:45.620Z,60.11
2018-03-02T01:39:26.167Z,60.11
2018-03-02T01:40:06.708Z,60.3
2018-03-02T01:40:47.259Z,60.11
2018-03-02T01:41:27.811Z,60.49
2018-03-02T01:42:08.350Z,60.39
2018-03-02T01:42:48.900Z,60.11
2018-03-02T01:43:29.472Z,60.49
2018-03-02T01:44:10.146Z,60.39
2018-03-02T01:44:50.642Z,60.3
2018-03-02T01:45:31.209Z,60.02
2018-03-02T01:47:49.077Z,60.39
2018-03-02T01:48:29.626Z,60.21
2018-03-02T01:49:10.197Z,60.3
2018-03-02T01:49:50.735Z,60.11
2018-03-02T01:50:31.280Z,60.11
2018-03-02T01:51:11.827Z,60.3
2018-03-02T01:51:52.379Z,60.3
2018-03-02T01:52:32.912Z,60.21
2018-03-02T01:53:13.465Z,60.3
2018-03-02T01:53:54.040Z,60.3
2018-03-02T01:54:34.579Z,60.39
2018-03-02T01:55:15.127Z,60.49
2018-03-02T01:55:55.666Z,60.11
2018-03-02T01:56:36.209Z,60.39
2018-03-02T01:57:16.753Z,60.39
2018-03-02T01:57:57.310Z,60.21
2018-03-02T01:58:37.862Z,60.39
2018-03-02T01:59:18.415Z,60.02
2018-03-02T01:59:58.974Z,60.21
2018-03-02T02:00:39.509Z,60.21
2018-03-02T02:01:20.062Z,60.21
2018-03-02T02:02:00.610Z,60.02
2018-03-02T02:02:41.160Z,60.3
2018-03-02T02:03:21.713Z,60.49
2018-03-02T02:04:02.300Z,60.58
2018-03-02T02:04:42.813Z,60.21
2018-03-02T02:05:23.362Z,60.21
2018-03-02T02:06:03.925Z,60.02
2018-03-02T02:06:44.466Z,60.39
2018-03-02T02:07:25.019Z,60.77
2018-03-02T02:08:05.575Z,60.96
2018-03-02T02:08:46.132Z,60.68
2018-03-02T02:09:26.727Z,60.58
2018-03-02T02:10:07.277Z,60.58
2018-03-02T02:10:47.813Z,60.68
2018-03-02T02:11:28.369Z,60.77
2018-03-02T02:12:08.923Z,60.86
2018-03-02T02:12:49.479Z,60.68
2018-03-02T02:13:30.026Z,60.58
2018-03-02T02:14:10.601Z,60.58
2018-03-02T02:14:51.154Z,60.68
2018-03-02T02:15:31.715Z,60.77
2018-03-02T02:16:12.296Z,60.58
2018-03-02T02:16:52.855Z,60.86
2018-03-02T02:17:33.420Z,61.05
2018-03-02T02:18:13.961Z,60.68
2018-03-02T02:18:54.526Z,60.68
2018-03-02T02:19:35.066Z,61.05
2018-03-02T02:20:15.681Z,61.05
2018-03-02T02:20:56.229Z,61.15
2018-03-02T02:21:36.788Z,61.15
2018-03-02T02:22:17.334Z,61.33
2018-03-02T02:22:57.876Z,61.52
2018-03-02T02:23:38.424Z,61.43
2018-03-02T02:24:18.978Z,61.24
2018-03-02T02:24:59.589Z,61.15
2018-03-02T02:25:40.145Z,61.15
2018-03-02T02:26:20.686Z,61.15
2018-03-02T02:27:01.234Z,61.33
2018-03-02T02:27:41.790Z,61.15
2018-03-02T02:28:22.336Z,61.05
2018-03-02T02:29:02.890Z,61.43
2018-03-02T02:29:43.475Z,61.24
2018-03-02T02:30:24.019Z,61.24
2018-03-02T02:31:04.576Z,61.33
2018-03-02T02:31:45.133Z,61.33
2018-03-02T02:32:25.689Z,61.71
2018-03-02T02:33:06.244Z,61.43
2018-03-02T02:33:46.792Z,61.33
2018-03-02T02:34:27.352Z,61.43
2018-03-02T02:35:07.886Z,61.62
2018-03-02T02:35:48.461Z,61.43
2018-03-02T02:36:29.009Z,61.52
2018-03-02T02:37:09.539Z,61.52
2018-03-02T02:37:50.138Z,61.52
2018-03-02T02:38:30.700Z,61.52
2018-03-02T02:39:11.252Z,61.62
2018-03-02T02:39:51.785Z,61.71
2018-03-02T02:40:32.339Z,61.52
2018-03-02T02:41:12.887Z,61.43
2018-03-02T02:41:53.467Z,62.09
2018-03-02T02:42:34.013Z,61.99
2018-03-02T02:43:14.538Z,61.81
2018-03-02T02:43:55.086Z,62.28
2018-03-02T02:44:35.646Z,61.71
2018-03-02T02:45:16.213Z,62.18
2018-03-02T02:45:56.796Z,61.99
2018-03-02T02:46:37.346Z,61.81
2018-03-02T02:47:17.926Z,61.71
2018-03-02T02:47:58.463Z,62.37
2018-03-02T02:48:39.028Z,62.28
2018-03-02T02:49:19.588Z,61.81
2018-03-02T02:50:00.156Z,61.9
2018-03-02T02:50:40.699Z,61.9
2018-03-02T02:51:21.248Z,61.9
2018-03-02T02:52:01.800Z,61.62
2018-03-02T02:52:42.348Z,61.81
2018-03-02T02:53:22.872Z,61.71
2018-03-02T02:54:03.430Z,61.9
2018-03-02T02:54:43.993Z,61.81
2018-03-02T02:55:24.542Z,62.18
2018-03-02T02:56:05.096Z,61.81
2018-03-02T02:56:45.650Z,62.28
2018-03-02T02:57:26.213Z,62.37
2018-03-02T02:58:06.771Z,62.28
2018-03-02T02:58:47.337Z,62.37
2018-03-02T02:59:27.937Z,62.37
2018-03-02T03:00:08.459Z,62.28
2018-03-02T03:00:49.018Z,62.28
2018-03-02T03:01:29.582Z,62.47
2018-03-02T03:02:10.130Z,62.47
2018-03-02T03:02:50.679Z,62.28
2018-03-02T03:03:31.229Z,62.28
2018-03-02T03:04:11.782Z,62.09
2018-03-02T03:04:52.333Z,62.25
2018-03-02T03:05:32.894Z,62.18
2018-03-02T03:06:13.454Z,62.09
2018-03-02T03:06:54.024Z,62.28
2018-03-02T03:07:34.596Z,62.09
2018-03-02T03:08:15.143Z,62.37
2018-03-02T03:08:55.703Z,62.18
2018-03-02T03:09:36.253Z,61.9
2018-03-02T03:10:16.807Z,62.37
2018-03-02T03:10:57.368Z,61.99
2018-03-02T03:11:37.916Z,62.09
2018-03-02T03:12:18.475Z,62.18
2018-03-02T03:12:59.028Z,62.28
2018-03-02T03:13:39.588Z,62.28
2018-03-02T03:14:20.138Z,62.37
2018-03-02T03:15:00.711Z,62.56
2018-03-02T03:15:41.267Z,62.28
2018-03-02T03:16:21.826Z,62.09
2018-03-02T03:17:02.379Z,62.28
2018-03-02T03:17:42.935Z,62.18
2018-03-02T03:18:23.487Z,61.99
2018-03-02T03:19:04.040Z,62.09
2018-03-02T03:19:44.597Z,62.37
2018-03-02T03:20:25.154Z,61.71
2018-03-02T03:21:05.709Z,61.71
2018-03-02T03:21:46.306Z,61.71
2018-03-02T03:22:26.849Z,62.18
2018-03-02T03:23:07.399Z,61.99
2018-03-02T03:23:47.956Z,62.09
2018-03-02T03:24:28.508Z,62.09
2018-03-02T03:25:09.059Z,62.37
2018-03-02T03:25:49.610Z,62.15
2018-03-02T03:26:30.179Z,61.99
2018-03-02T03:27:10.739Z,62.06
2018-03-02T03:27:51.287Z,61.9
2018-03-02T03:28:31.840Z,62.15
2018-03-02T03:29:12.399Z,61.99
2018-03-02T03:29:52.951Z,62.06
2018-03-02T03:30:33.517Z,62.18
2018-03-02T03:31:14.064Z,61.81
2018-03-02T03:31:54.611Z,62.18
2018-03-02T03:32:35.177Z,62.15
2018-03-02T03:33:15.725Z,61.87
2018-03-02T03:33:56.270Z,62.34
2018-03-02T03:34:36.825Z,62.15
2018-03-02T03:35:17.368Z,62.43
2018-03-02T03:35:58.021Z,62.43
2018-03-02T03:36:38.568Z,62.62
2018-03-02T03:37:19.125Z,62.53
2018-03-02T03:37:59.702Z,62.15
2018-03-02T03:38:40.233Z,62.25
2018-03-02T03:39:20.775Z,62.37
2018-03-02T03:40:01.330Z,62.34
2018-03-02T03:40:41.888Z,62.37
2018-03-02T03:41:22.439Z,62.75
2018-03-02T03:42:03.000Z,62.18
2018-03-02T03:42:43.548Z,62.09
2018-03-02T03:43:24.100Z,62.18
2018-03-02T03:44:04.673Z,62.15
2018-03-02T03:44:45.222Z,62.09
2018-03-02T03:45:25.776Z,62.18
2018-03-02T03:46:06.334Z,62.06
2018-03-02T03:46:46.888Z,62.28
2018-03-02T03:47:27.449Z,62.34
2018-03-02T03:48:08.008Z,61.68
2018-03-02T03:48:48.597Z,62.15
2018-03-02T03:49:29.151Z,61.87
2018-03-02T03:50:09.730Z,62.34
2018-03-02T03:50:50.280Z,62.34
2018-03-02T03:51:30.832Z,62.06
2018-03-02T03:52:11.389Z,61.96
2018-03-02T03:52:51.940Z,62.53
2018-03-02T03:53:32.499Z,62.37
2018-03-02T03:54:13.054Z,62.34
2018-03-02T03:54:53.635Z,62.34
2018-03-02T03:55:34.215Z,62.25
2018-03-02T03:56:14.740Z,62.34
2018-03-02T03:56:55.293Z,62.53
2018-03-02T03:57:35.858Z,62.43
2018-03-02T03:58:16.396Z,62.34
2018-03-02T03:58:56.960Z,62.34
2018-03-02T03:59:37.528Z,62.43
2018-03-02T04:00:18.077Z,62.72
2018-03-02T04:00:58.621Z,62.65
2018-03-02T04:01:39.183Z,62.72
2018-03-02T04:02:19.721Z,62.62
2018-03-02T04:03:00.278Z,62.81
2018-03-02T04:03:40.824Z,62.62
2018-03-02T04:04:21.382Z,62.72
2018-03-02T04:05:01.943Z,63
2018-03-02T04:05:42.475Z,62.43
2018-03-02T04:06:23.030Z,62.53
2018-03-02T04:07:03.601Z,62.34
2018-03-02T04:07:44.128Z,62.15
2018-03-02T04:08:24.734Z,62.43
2018-03-02T04:09:05.264Z,62.43
2018-03-02T04:09:45.812Z,62.34
2018-03-02T04:10:26.368Z,62.43
2018-03-02T04:11:06.944Z,62.43
2018-03-02T04:11:47.515Z,62.25
2018-03-02T04:12:28.073Z,62.43
2018-03-02T04:13:08.626Z,62.34
2018-03-02T04:13:49.186Z,62.43
2018-03-02T04:14:29.745Z,62.62
2018-03-02T04:15:10.306Z,62.81
2018-03-02T04:15:50.838Z,62.72
2018-03-02T04:16:31.399Z,62.91
2018-03-02T04:17:11.943Z,62.62
2018-03-02T04:17:52.478Z,62.62
2018-03-02T04:18:33.024Z,62.91
2018-03-02T04:19:13.600Z,62.72
2018-03-02T04:19:54.135Z,62.34
2018-03-02T04:20:34.674Z,62.81
2018-03-02T04:21:15.224Z,62.91
2018-03-02T04:21:55.779Z,62.94
2018-03-02T04:22:36.331Z,62.72
2018-03-02T04:23:16.882Z,62.62
2018-03-02T04:23:57.437Z,62.62
2018-03-02T04:24:37.997Z,62.91
2018-03-02T04:25:18.539Z,62.62
2018-03-02T04:25:59.103Z,62.91
2018-03-02T04:26:39.671Z,63
2018-03-02T04:27:20.216Z,63.19
2018-03-02T04:28:00.769Z,62.62
2018-03-02T04:28:41.317Z,62.81
2018-03-02T04:29:21.883Z,62.81
2018-03-02T04:30:02.416Z,62.72
2018-03-02T04:30:42.972Z,62.81
2018-03-02T04:31:23.537Z,62.62
2018-03-02T04:32:04.092Z,62.72
2018-03-02T04:32:44.652Z,62.15
2018-03-02T04:33:25.234Z,62.34
2018-03-02T04:34:05.780Z,62.34
2018-03-02T04:34:46.339Z,62.25
2018-03-02T04:35:26.895Z,62.81
2018-03-02T04:36:07.462Z,62.53
2018-03-02T04:36:48.022Z,62.62
2018-03-02T04:37:28.568Z,62.62
2018-03-02T04:38:09.127Z,62.91
2018-03-02T04:38:49.671Z,62.62
2018-03-02T04:39:30.225Z,63.19
2018-03-02T04:40:10.786Z,62.81
2018-03-02T04:40:51.327Z,63.19
2018-03-02T04:41:31.877Z,62.81
2018-03-02T04:42:12.473Z,62.62
2018-03-02T04:42:52.982Z,62.91
2018-03-02T04:43:33.537Z,62.62
2018-03-02T04:44:14.105Z,62.62
2018-03-02T04:44:54.668Z,62.81
2018-03-02T04:45:35.238Z,62.72
2018-03-02T04:46:15.783Z,62.72
2018-03-02T04:46:56.323Z,62.81
2018-03-02T04:47:36.882Z,63.19
2018-03-02T04:48:17.438Z,62.81
2018-03-02T04:48:58.027Z,63
2018-03-02T04:49:38.606Z,63
2018-03-02T04:50:19.208Z,62.81
2018-03-02T04:50:59.767Z,62.91
2018-03-02T04:51:40.331Z,63.47
2018-03-02T04:52:20.923Z,63.28
2018-03-02T04:53:01.467Z,63.19
2018-03-02T04:53:42.021Z,63.57
2018-03-02T04:54:22.572Z,63.19
2018-03-02T04:55:03.129Z,63.19
2018-03-02T04:55:43.690Z,63.28
2018-03-02T04:56:24.259Z,63.28
2018-03-02T04:57:04.831Z,63
2018-03-02T04:57:45.390Z,63.19
2018-03-02T04:58:25.986Z,63.28
2018-03-02T04:59:06.533Z,63.47
2018-03-02T04:59:47.082Z,63.47
2018-03-02T05:00:27.622Z,63
2018-03-02T05:01:08.162Z,62.91
2018-03-02T05:01:48.720Z,63.57
2018-03-02T05:02:29.265Z,63.09
2018-03-02T05:03:09.806Z,63.57
2018-03-02T05:03:50.353Z,62.91
2018-03-02T05:04:30.935Z,63.57
2018-03-02T05:05:11.480Z,63.09
2018-03-02T05:05:52.145Z,63.57
2018-03-02T05:06:32.853Z,63.28
2018-03-02T05:07:13.412Z,63.09
2018-03-02T05:07:54.007Z,63.38
2018-03-02T05:08:34.567Z,63.38
2018-03-02T05:09:15.125Z,63.28
2018-03-02T05:09:55.738Z,63.28
2018-03-02T05:10:37.211Z,63.09
2018-03-02T05:11:17.766Z,63.38
2018-03-02T05:11:58.316Z,63.38
2018-03-02T05:12:38.866Z,63.38
2018-03-02T05:13:19.423Z,63.38
2018-03-02T05:13:59.967Z,63.66
2018-03-02T05:14:40.566Z,63.57
2018-03-02T05:15:21.121Z,63.75
2018-03-02T05:16:01.674Z,63.38
2018-03-02T05:16:42.250Z,63.47
2018-03-02T05:17:22.810Z,63.47
2018-03-02T05:18:03.368Z,63.19
2018-03-02T05:18:43.917Z,63.85
2018-03-02T05:19:24.468Z,63.94
2018-03-02T05:20:05.022Z,63.75
2018-03-02T05:20:45.586Z,63.85
2018-03-02T05:21:26.148Z,63.75
2018-03-02T05:22:06.696Z,63.66
2018-03-02T05:22:47.261Z,63.75
2018-03-02T05:23:27.818Z,63.94
2018-03-02T05:24:08.380Z,63.75
2018-03-02T05:24:48.936Z,63.75
2018-03-02T05:25:29.514Z,63.66
2018-03-02T05:26:10.064Z,63.75
2018-03-02T05:26:50.651Z,63.57
2018-03-02T05:27:31.215Z,63.75
2018-03-02T05:28:11.750Z,63.66
2018-03-02T05:28:52.292Z,63.75
2018-03-02T05:29:32.861Z,63.57
2018-03-02T05:30:13.432Z,63.94
2018-03-02T05:30:54.015Z,63.57
2018-03-02T05:31:34.566Z,63.66
2018-03-02T05:32:15.140Z,63.94
2018-03-02T05:32:55.685Z,63.94
2018-03-02T05:33:36.249Z,63.75
2018-03-02T05:34:16.802Z,63.94
2018-03-02T05:34:57.438Z,63.66
2018-03-02T05:35:37.984Z,64.13
2018-03-02T05:36:18.526Z,63.94
2018-03-02T05:36:59.087Z,63.85
2018-03-02T05:37:39.691Z,63.66
2018-03-02T05:38:20.252Z,63.94
2018-03-02T05:39:00.792Z,63.75
2018-03-02T05:39:41.347Z,63.94
2018-03-02T05:40:21.899Z,63.38
2018-03-02T05:41:02.452Z,63.19
2018-03-02T05:41:43.023Z,63.94
2018-03-02T05:42:23.576Z,63.66
2018-03-02T05:43:04.134Z,63.66
2018-03-02T05:43:44.688Z,63.66
2018-03-02T05:44:25.275Z,63.66
2018-03-02T05:45:05.813Z,63.66
2018-03-02T05:45:46.365Z,63.66
2018-03-02T05:46:26.916Z,63.75
2018-03-02T05:47:07.469Z,63.85
2018-03-02T05:47:48.018Z,63.94
2018-03-02T05:48:28.582Z,63.75
2018-03-02T05:49:09.175Z,63.57
2018-03-02T05:49:49.774Z,63.66
2018-03-02T05:50:30.316Z,63.94
2018-03-02T05:51:10.858Z,63.94
2018-03-02T05:51:51.422Z,64.51
2018-03-02T05:52:31.970Z,64.41
2018-03-02T05:53:12.526Z,64.32
2018-03-02T05:53:53.085Z,64.41
2018-03-02T05:54:33.623Z,64.23
2018-03-02T05:55:14.197Z,63.66
2018-03-02T05:57:29.714Z,63.85
2018-03-02T05:58:10.270Z,63.66
2018-03-02T05:58:50.827Z,63.94
2018-03-02T05:59:31.383Z,64.32
2018-03-02T06:00:11.920Z,64.32
2018-03-02T06:00:52.563Z,64.32
2018-03-02T06:01:33.134Z,64.41
2018-03-02T06:02:13.689Z,64.32
2018-03-02T06:02:54.233Z,64.32
2018-03-02T06:03:34.798Z,64.41
2018-03-02T06:04:15.353Z,64.32
2018-03-02T06:04:55.894Z,64.51
2018-03-02T06:05:36.443Z,64.23
2018-03-02T06:06:17.014Z,63.94
2018-03-02T06:06:57.574Z,63.38
2018-03-02T06:07:38.125Z,63.94
2018-03-02T06:08:18.688Z,63.66
2018-03-02T06:08:59.223Z,63.94
2018-03-02T06:09:39.764Z,63.85
2018-03-02T06:10:20.302Z,64.04
2018-03-02T06:11:00.901Z,63.75
2018-03-02T06:11:41.444Z,63.85
2018-03-02T06:12:22.095Z,63.57
2018-03-02T06:13:02.620Z,63.85
2018-03-02T06:13:43.178Z,63.85
2018-03-02T06:14:23.729Z,63.94
2018-03-02T06:15:04.279Z,63.94
2018-03-02T06:15:44.824Z,63.75
2018-03-02T06:16:25.391Z,63.66
2018-03-02T06:17:05.944Z,63.38
2018-03-02T06:17:46.505Z,63.66
2018-03-02T06:18:27.149Z,63.94
2018-03-02T06:19:07.769Z,64.32
2018-03-02T06:19:48.334Z,64.32
2018-03-02T06:20:28.886Z,64.13
2018-03-02T06:21:09.475Z,64.41
2018-03-02T06:21:50.140Z,64.7
2018-03-02T06:22:30.876Z,64.7
2018-03-02T06:23:11.430Z,64.79
2018-03-02T06:23:51.993Z,64.98
2018-03-02T06:24:32.537Z,64.98
2018-03-02T06:25:13.095Z,64.79
2018-03-02T06:25:53.639Z,64.98
2018-03-02T06:26:34.427Z,64.98
2018-03-02T06:27:15.333Z,65.17
2018-03-02T06:27:55.874Z,65.45
2018-03-02T06:28:36.520Z,64.89
2018-03-02T06:29:17.066Z,65.26
2018-03-02T06:29:57.619Z,64.89
2018-03-02T06:30:38.172Z,65.17
2018-03-02T06:31:18.736Z,65.45
2018-03-02T06:31:59.271Z,64.98
2018-03-02T06:32:39.829Z,65.07
2018-03-02T06:33:20.399Z,64.89
2018-03-02T06:34:00.976Z,64.89
2018-03-02T06:34:41.567Z,65.17
2018-03-02T06:35:22.146Z,65.07
2018-03-02T06:36:05.387Z,64.98
2018-03-02T06:36:45.943Z,64.89
2018-03-02T06:37:26.500Z,64.98
2018-03-02T06:38:07.066Z,65.17
2018-03-02T06:38:47.615Z,65.17
2018-03-02T06:39:28.174Z,64.98
2018-03-02T06:40:08.731Z,65.07
2018-03-02T06:40:49.304Z,64.98
2018-03-02T06:41:29.877Z,64.89
2018-03-02T06:42:10.477Z,64.79
2018-03-02T06:42:51.056Z,64.89
2018-03-02T06:43:32.451Z,64.7
2018-03-02T06:44:13.037Z,64.23
2018-03-02T06:44:53.603Z,64.41
2018-03-02T06:45:34.155Z,64.51
2018-03-02T06:46:14.703Z,63.85
2018-03-02T06:46:55.495Z,63.94
2018-03-02T06:47:36.108Z,63.94
2018-03-02T06:48:16.655Z,63.38
2018-03-02T06:48:57.262Z,64.04
2018-03-02T06:49:37.964Z,64.04
2018-03-02T06:50:18.512Z,63.94
2018-03-02T06:50:59.048Z,64.23
2018-03-02T06:51:39.650Z,63.94
2018-03-02T06:52:20.173Z,63.69
2018-03-02T06:53:00.759Z,63.75
2018-03-02T06:53:41.337Z,63.75
2018-03-02T06:54:21.921Z,63.98
2018-03-02T06:55:02.490Z,63.75
2018-03-02T06:55:43.023Z,63.79
2018-03-02T06:56:23.725Z,63.98
2018-03-02T06:57:04.369Z,63.47
2018-03-02T06:57:44.936Z,63.22
2018-03-02T06:58:25.475Z,63.19
2018-03-02T06:59:06.133Z,63.19
2018-03-02T06:59:46.674Z,63.28
2018-03-02T07:00:27.281Z,63.22
2018-03-02T07:01:07.841Z,63.28
2018-03-02T07:01:48.386Z,63.41
2018-03-02T07:02:28.959Z,63.28
2018-03-02T07:03:09.494Z,63.47
2018-03-02T07:03:50.053Z,63.38
2018-03-02T07:04:30.687Z,63.57
2018-03-02T07:05:11.283Z,63.38
2018-03-02T07:05:52.076Z,63.28
2018-03-02T07:06:32.615Z,63.19
2018-03-02T07:07:13.179Z,63.19
2018-03-02T07:07:53.790Z,63.09
2018-03-02T07:08:34.349Z,63.38
2018-03-02T07:09:14.894Z,63.32
2018-03-02T07:09:55.451Z,63
2018-03-02T07:10:35.998Z,63.38
2018-03-02T07:11:16.548Z,63.41
2018-03-02T07:11:57.107Z,63.38
2018-03-02T07:12:37.663Z,63.28
2018-03-02T07:13:18.237Z,63.28
2018-03-02T07:13:58.780Z,63.66
2018-03-02T07:14:39.384Z,63.38
2018-03-02T07:15:19.888Z,63.38
2018-03-02T07:16:00.457Z,63.75
2018-03-02T07:16:41.015Z,63.66
2018-03-02T07:17:21.662Z,63.88
2018-03-02T07:18:02.166Z,63.79
2018-03-02T07:18:42.711Z,63.6
2018-03-02T07:19:23.268Z,63.98
2018-03-02T07:20:03.828Z,63.6
2018-03-02T07:20:44.386Z,63.6
2018-03-02T07:21:24.961Z,63.13
2018-03-02T07:22:05.482Z,63.41
2018-03-02T07:22:46.028Z,63.13
2018-03-02T07:23:26.643Z,63.41
2018-03-02T07:24:07.224Z,63.32
2018-03-02T07:24:47.788Z,63.41
2018-03-02T07:25:28.304Z,63.13
2018-03-02T07:26:08.863Z,63.41
2018-03-02T07:26:49.421Z,63.41
2018-03-02T07:27:30.017Z,63.13
2018-03-02T07:28:10.579Z,63.6
2018-03-02T07:28:51.130Z,62.94
2018-03-02T07:29:31.687Z,63.13
2018-03-02T07:30:12.272Z,63.6
2018-03-02T07:30:52.847Z,63.6
2018-03-02T07:31:33.503Z,63.6
2018-03-02T07:32:15.395Z,63.5
2018-03-02T07:32:56.759Z,63.32
2018-03-02T07:33:38.974Z,63.41
2018-03-02T07:34:19.770Z,63.13
2018-03-02T07:35:00.295Z,62.84
2018-03-02T07:35:40.855Z,62.75
2018-03-02T07:36:21.421Z,62.94
2018-03-02T07:37:01.981Z,62.94
2018-03-02T07:37:42.544Z,62.84
2018-03-02T07:38:23.168Z,62.84
2018-03-02T07:39:03.666Z,62.37
2018-03-02T07:39:44.239Z,62.47
2018-03-02T07:40:24.797Z,62.18
2018-03-02T07:41:05.349Z,62.84
2018-03-02T07:41:45.900Z,62.47
2018-03-02T07:42:26.452Z,62.18
2018-03-02T07:43:07.024Z,62.65
2018-03-02T07:43:47.575Z,62.56
2018-03-02T07:44:28.133Z,62.09
2018-03-02T07:45:08.687Z,62.09
2018-03-02T07:45:49.251Z,61.71
2018-03-02T07:46:29.857Z,61.62
2018-03-02T07:47:10.406Z,62.28
2018-03-02T07:47:50.959Z,61.81
2018-03-02T07:48:31.509Z,62.28
2018-03-02T07:49:12.058Z,62.37
2018-03-02T07:49:52.697Z,62.37
2018-03-02T07:50:33.257Z,62.37
2018-03-02T07:51:13.814Z,62.09
2018-03-02T07:51:54.368Z,61.62
2018-03-02T07:52:34.923Z,61.43
2018-03-02T07:53:15.516Z,61.62
2018-03-02T07:53:56.032Z,61.24
2018-03-02T07:54:36.593Z,61.24
2018-03-02T07:55:17.155Z,61.27
2018-03-02T07:55:57.709Z,60.99
2018-03-02T07:56:38.261Z,60.05
2018-03-02T07:57:18.832Z,58.82
2018-03-02T07:57:59.382Z,57.88
2018-03-02T07:58:39.935Z,56.93
2018-03-02T07:59:20.488Z,55.99
2018-03-02T08:00:01.040Z,55.27
2018-03-02T08:00:41.627Z,54.42
2018-03-02T08:01:22.171Z,54.14
2018-03-02T08:02:02.706Z,53.85
2018-03-02T08:02:43.325Z,53.29
2018-03-02T08:03:23.880Z,52.81
2018-03-02T08:04:04.451Z,52.62
2018-03-02T08:04:45.007Z,52.25
2018-03-02T08:05:25.561Z,51.97
2018-03-02T08:06:06.113Z,51.59
2018-03-02T08:06:46.657Z,51.05
2018-03-02T08:07:27.215Z,50.48
2018-03-02T08:08:07.776Z,50.76
2018-03-02T08:08:48.371Z,50.01
2018-03-02T08:09:28.919Z,49.73
2018-03-02T08:10:09.486Z,49.63
2018-03-02T08:10:50.052Z,49.57
2018-03-02T08:11:30.615Z,48.9
2018-03-02T08:12:11.174Z,47.86
2018-03-02T08:12:51.738Z,47.39
2018-03-02T08:13:32.275Z,47.02
2018-03-02T08:14:12.840Z,45.98
2018-03-02T08:14:53.398Z,45.79
2018-03-02T08:15:33.959Z,44.84
2018-03-02T08:16:14.557Z,46.26
2018-03-02T08:16:55.088Z,53.44
2018-03-02T08:17:35.649Z,59.79
2018-03-02T08:18:16.236Z,61.15
2018-03-02T08:18:56.789Z,61.05
2018-03-02T08:19:37.352Z,57.11
2018-03-02T08:20:17.900Z,55.22
2018-03-02T08:20:58.450Z,50.59
2018-03-02T08:21:39.025Z,46.9
2018-03-02T08:22:19.601Z,43.68
2018-03-02T08:23:00.197Z,41.13
2018-03-02T08:23:40.770Z,40
2018-03-02T08:24:21.316Z,38.86
2018-03-02T08:25:01.876Z,38.57
2018-03-02T08:25:42.414Z,38.01
2018-03-02T08:26:22.983Z,37.63
2018-03-02T08:27:03.561Z,37.25
2018-03-02T08:27:44.214Z,37.06
2018-03-02T08:28:24.759Z,37.06
2018-03-02T08:29:05.346Z,37.25
2018-03-02T08:29:45.923Z,37.16
2018-03-02T08:30:26.607Z,37.25
2018-03-02T08:31:07.159Z,36.78
2018-03-02T08:31:47.728Z,36.4
2018-03-02T08:32:28.285Z,36.68
2018-03-02T08:33:08.863Z,36.12
2018-03-02T08:33:49.433Z,36.02
2018-03-02T08:34:29.986Z,35.55
2018-03-02T08:35:10.563Z,35.36
2018-03-02T08:35:51.111Z,35.63
2018-03-02T08:36:31.679Z,35.72
2018-03-02T08:37:12.263Z,35.82
2018-03-02T08:37:53.399Z,36.57
2018-03-02T08:38:34.023Z,36.76
2018-03-02T08:39:14.735Z,36.85
2018-03-02T08:39:55.292Z,36.76
2018-03-02T08:40:35.844Z,37.14
2018-03-02T08:41:16.396Z,37.9
2018-03-02T08:41:56.953Z,38.09
2018-03-02T08:42:37.500Z,38.09
2018-03-02T08:43:18.064Z,37.71
2018-03-02T08:43:58.672Z,38.09
2018-03-02T08:44:39.251Z,38.56
2018-03-02T08:45:19.814Z,38.37
2018-03-02T08:46:00.374Z,38.37
2018-03-02T08:46:40.932Z,38.56
2018-03-02T08:47:21.515Z,38.84
2018-03-02T08:48:02.088Z,38.46